Time;durP1;ratioP1;P1;durP2;ratioP2;P2;SDS_P1;SDS_P2;PMS_P1;PMS_P2;Temp;Humidity;BMP_temperature;BMP_pressure;BME280_temperature;BME280_humidity;BME280_pressure;Samples;Min_cycle;Max_cycle;Signal;HPM_P1;HPM_P2
2022/01/16 00:00:21;;;;;;;98.78;42.08;;;3.80;99.90;;;;;;5054425;28;20029;-69
2022/01/16 00:05:20;;;;;;;95.60;38.50;;;3.80;99.90;;;;;;5054630;28;20052;-69
2022/01/16 00:07:45;;;;;;;107.57;41.28;;;3.80;99.90;;;;;;5054563;28;20118;-69
2022/01/16 00:10:11;;;;;;;95.55;42.92;;;3.80;99.90;;;;;;5054478;28;20453;-69
2022/01/16 00:12:37;;;;;;;93.18;42.75;;;3.80;99.90;;;;;;5054385;28;20017;-69
2022/01/16 00:15:04;;;;;;;102.00;43.33;;;3.90;99.90;;;;;;5054234;28;20025;-69
2022/01/16 00:17:34;;;;;;;106.10;43.78;;;3.90;99.90;;;;;;5053953;28;20040;-69
2022/01/16 00:20:00;;;;;;;95.70;40.08;;;3.90;99.90;;;;;;5054314;28;20029;-69
2022/01/16 00:22:29;;;;;;;100.20;41.05;;;3.90;99.90;;;;;;5053946;28;20025;-69
2022/01/16 00:24:55;;;;;;;116.82;45.25;;;3.80;99.90;;;;;;5053912;28;20049;-69
2022/01/16 00:27:21;;;;;;;107.97;46.33;;;3.90;99.90;;;;;;5054447;28;20075;-69
2022/01/16 00:29:46;;;;;;;113.97;45.78;;;3.90;99.90;;;;;;5053587;28;20029;-69
2022/01/16 00:32:12;;;;;;;125.57;48.08;;;3.90;99.90;;;;;;5035629;28;20056;-69
2022/01/16 00:34:37;;;;;;;140.13;53.20;;;3.90;99.90;;;;;;5053898;28;20071;-69
2022/01/16 00:37:03;;;;;;;174.38;61.95;;;3.90;99.90;;;;;;5053636;28;20036;-69
2022/01/16 00:39:29;;;;;;;174.90;61.30;;;3.90;99.90;;;;;;5053695;28;20028;-69
2022/01/16 00:41:55;;;;;;;183.48;62.20;;;3.90;99.90;;;;;;5053473;28;20047;-69
2022/01/16 00:44:21;;;;;;;177.25;63.75;;;3.90;99.90;;;;;;5053703;28;20489;-69
2022/01/16 00:46:47;;;;;;;189.55;66.93;;;3.90;99.90;;;;;;5053577;28;20045;-69
2022/01/16 00:49:12;;;;;;;196.70;68.95;;;3.90;99.90;;;;;;5053547;28;20473;-69
2022/01/16 00:51:38;;;;;;;187.52;69.57;;;3.90;99.90;;;;;;5053452;28;20032;-69
2022/01/16 00:54:03;;;;;;;192.15;67.82;;;3.90;99.90;;;;;;5053466;28;20102;-69
2022/01/16 00:56:29;;;;;;;214.77;72.80;;;3.90;99.90;;;;;;5053890;28;20033;-69
2022/01/16 00:58:54;;;;;;;213.80;70.70;;;3.90;99.90;;;;;;5053400;28;20100;-69
2022/01/16 01:01:20;;;;;;;214.88;72.65;;;3.90;99.90;;;;;;5053259;28;20075;-69
2022/01/16 01:03:45;;;;;;;216.80;70.05;;;3.90;99.90;;;;;;5053331;28;20021;-69
2022/01/16 01:06:11;;;;;;;202.05;71.80;;;3.90;99.90;;;;;;5053356;28;20031;-69
2022/01/16 01:08:36;;;;;;;221.82;75.15;;;3.90;99.90;;;;;;5053348;28;20025;-69
2022/01/16 01:11:07;;;;;;;176.02;67.43;;;3.90;99.90;;;;;;5053197;28;20029;-69
2022/01/16 01:13:44;;;;;;;170.43;64.80;;;3.90;99.90;;;;;;5053561;28;20051;-69
2022/01/16 01:16:15;;;;;;;162.52;61.17;;;3.90;99.90;;;;;;5053193;28;20029;-69
2022/01/16 01:18:40;;;;;;;132.38;54.33;;;3.90;99.90;;;;;;5053178;28;20021;-69
2022/01/16 01:21:16;;;;;;;133.05;51.92;;;3.90;99.90;;;;;;5053327;28;20067;-69
2022/01/16 01:23:41;;;;;;;108.95;48.38;;;3.80;99.90;;;;;;5053442;28;20052;-69
2022/01/16 01:26:07;;;;;;;143.65;54.22;;;3.80;99.90;;;;;;5053666;28;20068;-69
2022/01/16 01:28:33;;;;;;;139.27;57.20;;;3.70;99.90;;;;;;5053110;28;20036;-69
2022/01/16 01:30:58;;;;;;;137.88;51.47;;;3.80;99.90;;;;;;5053271;28;20022;-69
2022/01/16 01:33:25;;;;;;;149.95;53.33;;;3.80;99.90;;;;;;5053039;28;20025;-69
2022/01/16 01:35:51;;;;;;;143.38;53.97;;;3.80;99.90;;;;;;5053046;28;20100;-69
2022/01/16 01:38:18;;;;;;;142.82;55.63;;;3.80;99.90;;;;;;5053275;28;20483;-69
2022/01/16 01:40:47;;;;;;;140.38;55.00;;;3.80;99.90;;;;;;5052721;28;20029;-69
2022/01/16 01:51:15;;;;;;;127.65;51.53;;;3.80;99.90;;;;;;5057153;28;20484;-69
2022/01/16 01:53:42;;;;;;;137.75;51.90;;;3.90;99.90;;;;;;5039136;28;20020;-69
2022/01/16 01:56:11;;;;;;;155.73;54.42;;;3.90;99.90;;;;;;5056721;28;20027;-69
2022/01/16 01:58:37;;;;;;;162.68;56.30;;;3.80;99.90;;;;;;5056699;28;20024;-69
2022/01/16 02:01:03;;;;;;;170.23;56.58;;;3.90;99.90;;;;;;5056603;28;20013;-69
2022/01/16 02:03:42;;;;;;;159.05;53.65;;;3.80;99.90;;;;;;5056640;28;20017;-69
2022/01/16 02:06:11;;;;;;;174.40;59.63;;;3.80;99.90;;;;;;5057138;28;20036;-69
2022/01/16 02:08:37;;;;;;;155.23;56.50;;;3.80;99.90;;;;;;5057056;28;20033;-69
2022/01/16 02:11:03;;;;;;;155.88;55.75;;;3.80;99.90;;;;;;5056393;28;20035;-69
2022/01/16 02:13:34;;;;;;;158.98;54.95;;;3.80;99.90;;;;;;5056437;28;20056;-69
2022/01/16 02:32:46;;;;;;;137.20;50.05;;;3.90;99.90;;;;;;5056295;28;20025;-69
2022/01/16 02:34:46;;;;;;;123.47;45.60;;;3.90;99.90;;;;;;5052897;28;20091;-69
2022/01/16 02:37:14;;;;;;;128.18;43.97;;;3.90;99.90;;;;;;5055945;28;20021;-69
2022/01/16 02:39:45;;;;;;;121.72;45.40;;;3.90;99.90;;;;;;5055960;28;20021;-69
2022/01/16 02:42:12;;;;;;;123.63;44.03;;;3.90;99.90;;;;;;5055800;28;20057;-69
2022/01/16 02:44:47;;;;;;;128.57;46.92;;;3.80;99.90;;;;;;5055868;28;20055;-69
2022/01/16 02:47:17;;;;;;;119.90;45.70;;;3.90;99.90;;;;;;5055964;28;20504;-69
2022/01/16 02:49:47;;;;;;;126.80;46.55;;;3.80;99.90;;;;;;5056079;28;20036;-69
2022/01/16 02:52:18;;;;;;;120.75;45.15;;;3.80;99.90;;;;;;5056016;28;20362;-69
2022/01/16 02:54:46;;;;;;;137.55;47.65;;;3.80;99.90;;;;;;5055121;28;20025;-69
2022/01/16 02:57:18;;;;;;;127.05;44.63;;;3.80;99.90;;;;;;5055781;28;20033;-69
2022/01/16 02:59:50;;;;;;;123.25;43.13;;;3.90;99.90;;;;;;5055915;28;20025;-69
2022/01/16 03:02:18;;;;;;;123.05;46.50;;;3.90;99.90;;;;;;5055479;28;20020;-69
2022/01/16 03:04:43;;;;;;;110.13;45.17;;;3.80;99.90;;;;;;5055752;28;20037;-69
2022/01/16 03:07:09;;;;;;;108.82;42.78;;;3.80;99.90;;;;;;5055441;28;20200;-69
2022/01/16 03:09:59;;;;;;;121.30;43.58;;;3.80;99.90;;;;;;5037670;28;20095;-69
2022/01/16 03:12:21;;;;;;;107.35;39.10;;;3.80;99.90;;;;;;5054570;28;20159;-69
2022/01/16 03:14:46;;;;;;;104.75;41.92;;;3.90;99.90;;;;;;5055306;28;20079;-69
2022/01/16 03:17:12;;;;;;;111.10;42.92;;;3.80;99.90;;;;;;5055226;28;20517;-69
2022/01/16 03:22:22;;;;;;;101.30;41.83;;;3.90;99.90;;;;;;5055430;28;20032;-69
2022/01/16 03:24:48;;;;;;;102.68;40.10;;;3.90;99.90;;;;;;5055136;28;20021;-69
2022/01/16 03:27:17;;;;;;;102.95;40.88;;;3.90;99.90;;;;;;5055628;28;20025;-69
2022/01/16 03:29:49;;;;;;;105.03;41.17;;;3.90;99.90;;;;;;5055012;28;20032;-69
2022/01/16 03:32:18;;;;;;;99.25;39.58;;;3.90;99.90;;;;;;5055214;28;20102;-69
2022/01/16 03:34:44;;;;;;;106.93;41.17;;;3.90;99.90;;;;;;5054906;28;20104;-69
2022/01/16 03:37:10;;;;;;;100.45;39.33;;;3.90;99.90;;;;;;5054749;28;20511;-69
2022/01/16 03:39:36;;;;;;;95.65;39.05;;;3.90;99.90;;;;;;5054836;28;20439;-69
2022/01/16 03:42:02;;;;;;;95.38;40.25;;;3.90;99.90;;;;;;5054604;28;20060;-69
2022/01/16 03:44:28;;;;;;;93.10;38.53;;;4.00;99.90;;;;;;5054692;28;20028;-69
2022/01/16 03:46:54;;;;;;;97.28;38.05;;;4.00;99.90;;;;;;5054666;28;20029;-69
2022/01/16 03:49:22;;;;;;;78.03;36.20;;;4.00;99.90;;;;;;5054664;28;20378;-69
2022/01/16 03:51:50;;;;;;;75.85;33.25;;;4.00;99.90;;;;;;5054570;28;20024;-69
2022/01/16 03:54:18;;;;;;;78.07;34.10;;;4.00;99.90;;;;;;5054818;28;20063;-69
2022/01/16 03:56:44;;;;;;;67.57;32.05;;;4.00;99.90;;;;;;5054525;28;20033;-69
2022/01/16 03:59:10;;;;;;;72.65;31.00;;;3.90;99.90;;;;;;5054472;28;20021;-69
2022/01/16 04:01:36;;;;;;;60.55;30.30;;;4.00;99.90;;;;;;5054300;28;20033;-69
2022/01/16 04:04:02;;;;;;;68.13;28.77;;;4.00;99.90;;;;;;5054391;28;20078;-69
2022/01/16 04:06:28;;;;;;;61.47;27.60;;;3.90;99.90;;;;;;5053411;28;20393;-69
2022/01/16 04:08:54;;;;;;;65.85;29.75;;;4.00;99.90;;;;;;5054229;28;20021;-69
2022/01/16 04:11:25;;;;;;;60.33;28.60;;;4.00;99.90;;;;;;5054183;28;20111;-69
2022/01/16 04:14:02;;;;;;;60.25;27.10;;;4.00;99.90;;;;;;5054153;28;20081;-69
2022/01/16 04:16:28;;;;;;;58.90;27.17;;;4.00;99.90;;;;;;5054312;28;20085;-69
2022/01/16 04:18:54;;;;;;;62.22;27.92;;;4.00;99.90;;;;;;5054668;28;20361;-69
2022/01/16 04:21:21;;;;;;;62.17;28.30;;;4.00;99.90;;;;;;5054119;28;20029;-69
2022/01/16 04:23:47;;;;;;;58.08;27.13;;;4.00;99.90;;;;;;5053970;28;20013;-69
2022/01/16 04:26:14;;;;;;;67.15;27.65;;;4.00;99.90;;;;;;5053912;28;20446;-69
2022/01/16 04:28:39;;;;;;;72.55;29.33;;;3.90;99.90;;;;;;5053863;28;20098;-69
2022/01/16 04:31:05;;;;;;;65.15;29.88;;;4.00;99.90;;;;;;5054050;28;20029;-69
2022/01/16 04:33:31;;;;;;;71.90;32.50;;;4.00;99.90;;;;;;5053792;28;20047;-69
2022/01/16 04:35:56;;;;;;;72.72;30.50;;;3.90;99.90;;;;;;5053727;28;20032;-69
2022/01/16 04:38:22;;;;;;;64.18;28.75;;;3.90;99.90;;;;;;5054285;28;20104;-69
2022/01/16 04:43:48;;;;;;;56.15;27.98;;;3.90;99.90;;;;;;5053929;28;20075;-69
2022/01/16 04:46:46;;;;;;;66.47;29.40;;;4.00;99.90;;;;;;5053649;28;20108;-69
2022/01/16 04:49:12;;;;;;;71.60;31.92;;;4.00;99.90;;;;;;5037792;28;20044;-69
2022/01/16 04:51:37;;;;;;;72.70;32.00;;;4.00;99.90;;;;;;5053776;28;20041;-69
2022/01/16 04:54:03;;;;;;;82.55;35.03;;;3.90;99.90;;;;;;5053508;28;20051;-69
2022/01/16 04:56:29;;;;;;;81.32;32.55;;;3.90;99.90;;;;;;5053430;28;20025;-69
2022/01/16 04:58:55;;;;;;;74.68;32.42;;;4.00;99.90;;;;;;5053777;28;20104;-69
2022/01/16 05:01:20;;;;;;;85.10;33.92;;;4.00;99.90;;;;;;5054369;28;20108;-69
2022/01/16 05:03:46;;;;;;;88.25;35.83;;;4.00;99.90;;;;;;5053510;28;20033;-69
2022/01/16 05:06:11;;;;;;;91.47;34.58;;;4.00;99.90;;;;;;5053323;28;20080;-69
2022/01/16 05:08:37;;;;;;;87.07;35.55;;;4.00;99.90;;;;;;5053281;28;20032;-69
2022/01/16 05:11:05;;;;;;;87.13;36.10;;;4.10;99.90;;;;;;5053208;28;20025;-69
2022/01/16 05:18:43;;;;;;;110.70;40.78;;;4.00;99.90;;;;;;5053545;28;20082;-69
2022/01/16 05:21:10;;;;;;;114.65;38.40;;;4.00;99.90;;;;;;5053103;28;20104;-69
2022/01/16 05:23:35;;;;;;;108.93;40.55;;;4.00;99.90;;;;;;5053701;28;20017;-69
2022/01/16 05:26:03;;;;;;;116.05;40.33;;;4.00;99.90;;;;;;5053128;28;20062;-69
2022/01/16 05:28:29;;;;;;;104.88;41.63;;;4.00;99.90;;;;;;5053311;28;20028;-69
2022/01/16 05:30:54;;;;;;;102.20;39.92;;;4.00;99.90;;;;;;5052978;28;20393;-69
2022/01/16 05:33:21;;;;;;;115.50;41.20;;;4.00;99.90;;;;;;5053273;28;20049;-69
2022/01/16 05:35:47;;;;;;;110.15;42.00;;;4.00;99.90;;;;;;5052989;28;20096;-69
2022/01/16 05:38:12;;;;;;;124.68;44.83;;;4.00;99.90;;;;;;5053274;28;20473;-69
2022/01/16 05:40:38;;;;;;;118.95;45.38;;;3.90;99.90;;;;;;5052845;28;20032;-69
2022/01/16 05:43:04;;;;;;;126.72;46.70;;;4.00;99.90;;;;;;5053265;28;20021;-69
2022/01/16 05:45:30;;;;;;;125.10;45.83;;;4.00;99.90;;;;;;5053210;28;20037;-69
2022/01/16 05:47:56;;;;;;;124.32;46.88;;;4.00;99.90;;;;;;5053311;28;20044;-69
2022/01/16 05:50:23;;;;;;;125.05;44.58;;;4.00;99.90;;;;;;5052939;28;20021;-69
2022/01/16 05:52:49;;;;;;;124.10;44.97;;;3.90;99.90;;;;;;5052822;28;20055;-69
2022/01/16 05:55:16;;;;;;;134.82;45.33;;;3.90;99.90;;;;;;5053127;28;20042;-69
2022/01/16 05:57:42;;;;;;;134.45;46.97;;;4.00;99.90;;;;;;5052766;28;20031;-69
2022/01/16 06:00:09;;;;;;;146.30;48.05;;;3.90;99.90;;;;;;5052817;28;20429;-69
2022/01/16 06:02:35;;;;;;;136.10;46.95;;;3.90;99.90;;;;;;5052720;28;20465;-69
2022/01/16 06:05:01;;;;;;;134.55;45.63;;;3.80;99.90;;;;;;5052850;28;20139;-69
2022/01/16 06:07:27;;;;;;;146.73;50.22;;;3.80;99.90;;;;;;5052780;28;20052;-69
2022/01/16 06:09:52;;;;;;;157.40;52.25;;;3.80;99.90;;;;;;5053267;28;20420;-69
2022/01/16 06:12:19;;;;;;;150.35;51.05;;;3.70;99.90;;;;;;5053188;28;20029;-69
2022/01/16 06:14:45;;;;;;;155.50;51.67;;;3.70;99.90;;;;;;5052804;28;20477;-69
2022/01/16 06:17:10;;;;;;;166.32;55.72;;;3.60;99.90;;;;;;5052544;28;20039;-69
2022/01/16 06:19:36;;;;;;;163.52;53.75;;;3.60;99.90;;;;;;5052613;28;20017;-69
2022/01/16 06:22:02;;;;;;;161.68;52.78;;;3.60;99.90;;;;;;5052537;28;20045;-69
2022/01/16 06:24:27;;;;;;;169.23;54.33;;;3.50;99.90;;;;;;5053387;28;20527;-69
2022/01/16 06:26:53;;;;;;;172.20;54.67;;;3.50;99.90;;;;;;5052846;28;20032;-69
2022/01/16 06:29:19;;;;;;;173.15;55.20;;;3.50;99.90;;;;;;5054665;28;20082;-69
2022/01/16 06:31:45;;;;;;;169.98;54.38;;;3.40;99.90;;;;;;5056239;28;20024;-69
2022/01/16 06:34:11;;;;;;;190.85;55.75;;;3.40;99.90;;;;;;5056086;28;20078;-69
2022/01/16 06:36:37;;;;;;;178.45;53.47;;;3.40;99.90;;;;;;5055966;28;20025;-69
2022/01/16 06:39:05;;;;;;;184.80;54.53;;;3.40;99.90;;;;;;5056009;28;20021;-69
2022/01/16 06:41:32;;;;;;;188.82;59.00;;;3.40;99.90;;;;;;5055803;28;20029;-69
2022/01/16 06:43:57;;;;;;;224.20;60.35;;;3.40;99.90;;;;;;5056228;28;20465;-69
2022/01/16 06:46:23;;;;;;;205.45;59.88;;;3.40;99.90;;;;;;5055854;28;20037;-69
2022/01/16 06:48:49;;;;;;;228.07;59.80;;;3.40;99.90;;;;;;5055858;28;20021;-69
2022/01/16 06:51:18;;;;;;;221.25;57.97;;;3.40;99.90;;;;;;5055714;28;20078;-69
2022/01/16 06:53:44;;;;;;;225.07;60.08;;;3.40;99.90;;;;;;5055762;28;20100;-69
2022/01/16 06:56:10;;;;;;;234.80;58.42;;;3.40;99.90;;;;;;5055599;28;20051;-69
2022/01/16 06:58:35;;;;;;;239.70;60.92;;;3.40;99.90;;;;;;5056189;28;20025;-69
2022/01/16 07:01:01;;;;;;;245.63;62.28;;;3.40;99.90;;;;;;5055509;28;20029;-69
2022/01/16 07:03:26;;;;;;;235.60;59.42;;;3.50;99.90;;;;;;5055505;28;20025;-69
2022/01/16 07:05:52;;;;;;;219.32;59.97;;;3.50;99.90;;;;;;5055503;28;20025;-69
2022/01/16 07:08:22;;;;;;;243.18;56.40;;;3.50;99.90;;;;;;5055418;28;20032;-69
2022/01/16 07:10:48;;;;;;;237.05;57.97;;;3.50;99.90;;;;;;5055560;28;20025;-69
2022/01/16 07:13:14;;;;;;;229.65;54.58;;;3.60;99.90;;;;;;5055369;28;20075;-69
2022/01/16 07:15:39;;;;;;;230.50;54.80;;;3.60;99.90;;;;;;5055488;28;20104;-69
2022/01/16 07:18:05;;;;;;;182.77;51.08;;;3.70;99.90;;;;;;5055505;28;20033;-69
2022/01/16 07:20:30;;;;;;;194.10;51.70;;;3.70;99.90;;;;;;5055166;28;20029;-69
2022/01/16 07:22:56;;;;;;;211.05;55.25;;;3.70;99.90;;;;;;5055157;28;20025;-69
2022/01/16 07:25:22;;;;;;;184.35;48.72;;;3.70;99.90;;;;;;5055152;28;20036;-69
2022/01/16 07:27:47;;;;;;;186.18;50.22;;;3.70;99.90;;;;;;5055082;28;20037;-69
2022/01/16 07:30:13;;;;;;;197.02;50.40;;;3.80;99.90;;;;;;5055043;28;20099;-69
2022/01/16 07:32:39;;;;;;;189.65;52.47;;;3.70;99.90;;;;;;5055468;28;20040;-69
2022/01/16 07:35:05;;;;;;;189.65;52.72;;;3.80;99.90;;;;;;5054949;28;20033;-69
2022/01/16 07:37:31;;;;;;;213.80;54.28;;;3.70;99.90;;;;;;5054845;28;20082;-69
2022/01/16 07:39:56;;;;;;;225.05;52.55;;;3.70;99.90;;;;;;5054790;28;20033;-69
2022/01/16 07:42:22;;;;;;;201.07;50.50;;;3.70;99.90;;;;;;5055092;28;20086;-69
2022/01/16 07:44:47;;;;;;;207.95;50.30;;;3.70;99.90;;;;;;5054786;28;20025;-69
2022/01/16 07:47:14;;;;;;;218.63;51.83;;;3.70;99.90;;;;;;5055278;28;20028;-69
2022/01/16 07:49:39;;;;;;;207.43;49.95;;;3.70;99.90;;;;;;5054664;28;20025;-69
2022/01/16 07:52:05;;;;;;;201.70;49.90;;;3.70;99.90;;;;;;5054601;28;20527;-69
2022/01/16 07:54:31;;;;;;;205.63;50.08;;;3.70;99.90;;;;;;5055132;28;20495;-69
2022/01/16 07:56:57;;;;;;;233.57;52.83;;;3.70;99.90;;;;;;5054445;28;20036;-69
2022/01/16 07:59:22;;;;;;;231.68;53.00;;;3.60;99.90;;;;;;5054490;28;20104;-69
2022/01/16 08:01:48;;;;;;;219.35;56.65;;;3.60;99.90;;;;;;5054343;28;20547;-69
2022/01/16 08:04:13;;;;;;;230.10;55.05;;;3.70;99.90;;;;;;5054373;28;20083;-69
2022/01/16 08:06:39;;;;;;;262.67;61.42;;;3.70;99.90;;;;;;5054643;28;20465;-69
2022/01/16 08:09:04;;;;;;;255.50;61.38;;;3.70;99.90;;;;;;5054273;28;20021;-69
2022/01/16 08:11:30;;;;;;;256.08;61.40;;;3.70;99.90;;;;;;5054149;28;20078;-69
2022/01/16 08:13:55;;;;;;;266.83;63.10;;;3.70;99.90;;;;;;5054489;28;20048;-69
2022/01/16 08:16:21;;;;;;;298.75;64.32;;;3.70;99.90;;;;;;5054044;28;20021;-69
2022/01/16 08:18:47;;;;;;;265.35;63.10;;;3.80;99.90;;;;;;5054517;28;20017;-69
2022/01/16 08:21:12;;;;;;;281.80;68.70;;;3.80;99.90;;;;;;5053992;28;20032;-69
2022/01/16 08:23:38;;;;;;;285.17;66.82;;;3.80;99.90;;;;;;5054290;28;20477;-69
2022/01/16 08:26:04;;;;;;;274.70;65.68;;;3.80;99.90;;;;;;5054127;28;20017;-69
2022/01/16 08:28:30;;;;;;;334.65;70.78;;;3.80;99.90;;;;;;5036158;28;20111;-69
2022/01/16 08:30:55;;;;;;;300.15;66.63;;;3.80;99.90;;;;;;5053827;28;20101;-69
2022/01/16 08:33:21;;;;;;;321.13;68.43;;;3.80;99.90;;;;;;5053883;28;20054;-69
2022/01/16 08:35:47;;;;;;;324.20;72.00;;;3.80;99.90;;;;;;5053794;28;20057;-69
2022/01/16 08:38:12;;;;;;;340.20;73.30;;;3.90;99.90;;;;;;5053740;28;20025;-69
2022/01/16 08:40:38;;;;;;;363.83;75.75;;;3.80;99.90;;;;;;5053513;28;20100;-69
2022/01/16 08:43:08;;;;;;;347.60;73.20;;;3.90;99.90;;;;;;5054033;28;20021;-69
2022/01/16 08:45:36;;;;;;;368.60;75.07;;;3.80;99.90;;;;;;5053765;28;20035;-69
2022/01/16 08:48:02;;;;;;;349.80;75.20;;;3.90;99.90;;;;;;5053603;28;20032;-69
2022/01/16 08:50:27;;;;;;;338.85;77.68;;;3.90;99.90;;;;;;5053857;28;20029;-69
2022/01/16 08:52:53;;;;;;;370.02;76.45;;;3.90;99.90;;;;;;5052991;28;20071;-69
2022/01/16 08:55:19;;;;;;;353.13;77.65;;;3.90;99.90;;;;;;5053835;28;20024;-69
2022/01/16 08:57:44;;;;;;;330.35;72.95;;;3.90;99.90;;;;;;5053416;28;20104;-69
2022/01/16 09:00:11;;;;;;;338.95;76.32;;;4.00;99.90;;;;;;5053717;28;20460;-69
2022/01/16 09:02:37;;;;;;;348.92;77.32;;;3.90;99.90;;;;;;5053328;28;20469;-69
2022/01/16 09:05:04;;;;;;;352.23;76.35;;;4.00;99.90;;;;;;5053373;28;20029;-69
2022/01/16 09:07:29;;;;;;;335.02;72.85;;;4.00;99.90;;;;;;5053291;28;20036;-69
2022/01/16 09:09:57;;;;;;;356.67;74.10;;;4.00;99.90;;;;;;5053339;28;20021;-69
2022/01/16 09:12:23;;;;;;;319.88;68.65;;;4.00;99.90;;;;;;5053197;28;20071;-69
2022/01/16 09:14:49;;;;;;;332.70;73.07;;;4.00;99.90;;;;;;5053230;28;20389;-69
2022/01/16 09:17:14;;;;;;;333.30;72.95;;;4.00;99.90;;;;;;5053418;28;20054;-69
2022/01/16 09:19:42;;;;;;;352.00;73.63;;;4.00;99.90;;;;;;5053480;28;20029;-69
2022/01/16 09:22:07;;;;;;;373.00;77.40;;;4.00;99.90;;;;;;5053129;28;20020;-69
2022/01/16 09:24:34;;;;;;;344.67;77.18;;;4.00;99.90;;;;;;5053130;28;20017;-69
2022/01/16 09:26:59;;;;;;;387.27;84.05;;;4.10;99.90;;;;;;5053157;28;20028;-69
2022/01/16 09:29:25;;;;;;;381.05;82.32;;;4.10;99.90;;;;;;5053381;28;20037;-69
2022/01/16 09:31:51;;;;;;;401.60;81.50;;;4.20;99.90;;;;;;5053009;28;20025;-69
2022/01/16 09:34:16;;;;;;;386.65;87.60;;;4.20;99.90;;;;;;5053376;28;20028;-69
2022/01/16 09:36:42;;;;;;;379.63;84.75;;;4.30;99.90;;;;;;5052978;28;20489;-69
2022/01/16 09:39:07;;;;;;;386.15;86.60;;;4.30;99.90;;;;;;5053037;28;20021;-69
2022/01/16 09:41:33;;;;;;;414.88;91.18;;;4.40;99.90;;;;;;5052803;28;20044;-69
2022/01/16 09:44:00;;;;;;;382.42;86.30;;;4.40;99.90;;;;;;5052986;28;20032;-69
2022/01/16 09:46:26;;;;;;;370.88;84.40;;;4.50;99.90;;;;;;5053329;28;20037;-69
2022/01/16 09:48:51;;;;;;;417.23;90.95;;;4.50;99.90;;;;;;5052927;28;20021;-69
2022/01/16 09:51:17;;;;;;;341.75;81.63;;;4.50;99.90;;;;;;5053137;28;20053;-69
2022/01/16 09:53:43;;;;;;;350.98;85.80;;;4.60;99.90;;;;;;5053407;28;20412;-69
2022/01/16 09:56:10;;;;;;;344.42;83.15;;;4.60;99.90;;;;;;5052744;28;20059;-69
2022/01/16 09:58:36;;;;;;;338.88;82.95;;;4.70;99.90;;;;;;5052814;28;20029;-69
2022/01/16 10:01:02;;;;;;;339.80;83.10;;;4.70;99.90;;;;;;5052734;28;20104;-69
2022/01/16 10:03:46;;;;;;;290.08;74.75;;;4.70;99.90;;;;;;5053379;28;20140;-69
2022/01/16 10:06:16;;;;;;;;;;;4.80;99.90;;;;;;5057285;28;20025;-69
2022/01/16 10:08:43;;;;;;;238.57;67.13;;;4.80;99.90;;;;;;5056586;28;19999;-69
2022/01/16 10:11:40;;;;;;;245.50;64.72;;;4.90;99.90;;;;;;5056445;28;20055;-69
2022/01/16 10:17:11;;;;;;;239.97;67.87;;;4.90;99.90;;;;;;5033117;28;20122;-69
2022/01/16 10:19:37;;;;;;;232.20;61.38;;;4.90;99.90;;;;;;5056964;28;20048;-69
2022/01/16 10:22:09;;;;;;;212.60;59.90;;;4.90;99.90;;;;;;5056247;28;20029;-69
2022/01/16 10:24:38;;;;;;;197.15;57.40;;;5.00;99.90;;;;;;5056495;28;20420;-69
2022/01/16 10:27:07;;;;;;;178.85;56.70;;;5.00;99.90;;;;;;5056321;28;20489;-69
2022/01/16 10:29:39;;;;;;;152.63;50.90;;;5.10;99.90;;;;;;5056254;28;20104;-69
2022/01/16 10:32:14;;;;;;;147.80;49.80;;;5.10;99.90;;;;;;5056153;28;20100;-69
2022/01/16 10:34:40;;;;;;;133.07;47.28;;;5.10;99.90;;;;;;5056095;28;20021;-68
2022/01/16 10:37:23;;;;;;;124.05;46.88;;;5.20;99.90;;;;;;5056365;28;20075;-68
2022/01/16 10:39:58;;;;;;;106.82;46.33;;;5.20;99.90;;;;;;5056024;28;20024;-68
2022/01/16 10:42:24;;;;;;;87.10;40.28;;;5.30;99.90;;;;;;5055806;28;20033;-68
2022/01/16 10:45:08;;;;;;;112.82;39.03;;;5.30;99.90;;;;;;5055913;28;20374;-68
2022/01/16 10:48:06;;;;;;;94.88;37.22;;;5.30;99.90;;;;;;5055874;28;20111;-68
2022/01/16 10:50:35;;;;;;;86.40;35.42;;;5.40;99.90;;;;;;5012077;28;20072;-69
2022/01/16 10:53:02;;;;;;;81.85;32.92;;;5.40;99.90;;;;;;5055766;28;20028;-69
2022/01/16 10:55:47;;;;;;;72.35;32.22;;;5.40;99.90;;;;;;5055989;28;20025;-69
2022/01/16 10:58:38;;;;;;;62.92;27.98;;;5.50;99.90;;;;;;5056017;28;20107;-69
2022/01/16 11:01:16;;;;;;;66.68;28.17;;;5.60;99.90;;;;;;5052426;28;20493;-69
2022/01/16 11:03:50;;;;;;;61.85;29.70;;;5.60;99.90;;;;;;5055898;28;20025;-69
2022/01/16 11:06:16;;;;;;;;;;;5.70;99.90;;;;;;5055956;28;20032;-69
2022/01/16 11:08:50;;;;;;;54.00;24.00;;;5.80;99.90;;;;;;5055683;28;19986;-69
2022/01/16 11:11:16;;;;;;;58.50;26.17;;;5.80;99.90;;;;;;5055684;28;20029;-69
2022/01/16 11:13:42;;;;;;;54.28;25.02;;;5.80;99.90;;;;;;5055392;28;20029;-69
2022/01/16 11:16:08;;;;;;;55.90;25.90;;;5.80;99.90;;;;;;5054860;28;20432;-69
2022/01/16 11:18:37;;;;;;;48.78;27.98;;;5.90;99.90;;;;;;5055367;28;20021;-69
2022/01/16 11:21:14;;;;;;;59.78;28.85;;;5.90;99.90;;;;;;5055740;28;20091;-69
2022/01/16 11:24:00;;;;;;;57.13;28.38;;;5.90;99.90;;;;;;5055487;28;20031;-69
2022/01/16 11:26:27;;;;;;;64.75;31.02;;;5.80;99.90;;;;;;5055212;28;20481;-70
2022/01/16 11:28:54;;;;;;;60.97;32.33;;;5.80;99.90;;;;;;5055104;28;20025;-69
2022/01/16 11:31:20;;;;;;;66.20;29.55;;;5.80;99.90;;;;;;5055002;28;20037;-70
2022/01/16 11:33:46;;;;;;;62.15;30.67;;;5.90;99.90;;;;;;5055288;28;20028;-69
2022/01/16 11:36:18;;;;;;;67.88;31.20;;;5.90;99.90;;;;;;5055183;28;20082;-69
2022/01/16 11:38:49;;;;;;;65.03;31.48;;;6.00;99.90;;;;;;5054901;28;20025;-69
2022/01/16 11:41:35;;;;;;;78.00;33.13;;;6.00;99.90;;;;;;5054562;28;20439;-69
2022/01/16 11:44:03;;;;;;;57.72;28.73;;;6.10;99.90;;;;;;5054954;28;20029;-69
2022/01/16 11:46:31;;;;;;;75.68;30.95;;;6.20;99.90;;;;;;5055014;28;20067;-72
2022/01/16 11:48:59;;;;;;;68.88;28.30;;;6.20;99.90;;;;;;5054695;28;20375;-71
2022/01/16 11:51:39;;;;;;;80.97;39.03;;;6.30;99.90;;;;;;5054754;28;20032;-71
2022/01/16 11:54:20;;;;;;;81.72;31.83;;;6.20;99.90;;;;;;5054616;28;20021;-71
2022/01/16 11:56:46;;;;;;;66.22;31.35;;;6.40;99.90;;;;;;5036649;28;20031;-71
2022/01/16 11:59:19;;;;;;;66.55;28.25;;;6.40;99.90;;;;;;5054458;28;20096;-71
2022/01/16 12:02:00;;;;;;;73.55;31.23;;;6.40;99.90;;;;;;5054788;28;20067;-71
2022/01/16 12:04:28;;;;;;;68.47;27.75;;;6.40;99.90;;;;;;5054436;28;20025;-71
2022/01/16 12:07:21;;;;;;;65.72;29.08;;;6.50;99.90;;;;;;5054691;28;20481;-71
2022/01/16 12:09:52;;;;;;;71.28;29.42;;;6.50;99.90;;;;;;5054101;28;20033;-71
2022/01/16 12:12:17;;;;;;;74.50;28.63;;;6.50;99.90;;;;;;5054398;28;20108;-71
2022/01/16 12:15:05;;;;;;;74.18;30.08;;;6.50;99.90;;;;;;5054482;28;20087;-71
2022/01/16 12:17:41;;;;;;;69.82;29.80;;;6.50;99.90;;;;;;5036359;28;20412;-69
2022/01/16 12:20:17;;;;;;;66.05;27.50;;;6.50;99.90;;;;;;5054443;28;20020;-69
2022/01/16 12:23:03;;;;;;;73.28;29.77;;;6.50;99.90;;;;;;5054111;28;20037;-69
2022/01/16 12:25:33;;;;;;;60.88;31.02;;;6.50;99.90;;;;;;5054246;28;20013;-69
2022/01/16 12:28:04;;;;;;;70.88;29.08;;;6.60;99.90;;;;;;5053468;28;20032;-69
2022/01/16 12:30:51;;;;;;;71.75;29.77;;;6.60;99.90;;;;;;5054158;28;20033;-69
2022/01/16 12:33:38;;;;;;;55.15;29.17;;;6.70;99.90;;;;;;5054236;28;20075;-69
2022/01/16 12:36:11;;;;;;;78.95;28.67;;;6.70;99.90;;;;;;5053845;28;20025;-69
2022/01/16 12:38:44;;;;;;;58.30;25.70;;;6.80;99.90;;;;;;5054175;28;20033;-69
2022/01/16 12:41:30;;;;;;;59.33;25.55;;;6.80;99.90;;;;;;5053816;28;20025;-70
2022/01/16 12:43:58;;;;;;;62.05;24.15;;;6.80;99.90;;;;;;5053745;28;20032;-70
2022/01/16 12:46:38;;;;;;;51.78;24.20;;;6.80;99.90;;;;;;5053671;28;20025;-70
2022/01/16 12:49:19;;;;;;;57.10;25.70;;;6.80;99.90;;;;;;5053914;28;20113;-70
2022/01/16 12:51:47;;;;;;;66.15;26.58;;;6.80;99.90;;;;;;5053834;28;20017;-69
2022/01/16 12:54:16;;;;;;;55.70;25.00;;;6.70;99.90;;;;;;5053582;28;20017;-69
2022/01/16 12:56:50;;;;;;;56.40;25.38;;;6.60;99.90;;;;;;5053429;28;20028;-69
2022/01/16 12:59:18;;;;;;;70.80;26.67;;;6.60;99.90;;;;;;5053791;28;20415;-69
2022/01/16 13:01:55;;;;;;;69.50;28.88;;;6.60;99.90;;;;;;5053358;28;20104;-69
2022/01/16 13:04:32;;;;;;;80.10;29.20;;;6.60;99.90;;;;;;5053405;28;20044;-69
2022/01/16 13:07:15;;;;;;;74.85;29.02;;;6.60;99.90;;;;;;5053401;28;20025;-69
2022/01/16 13:09:42;;;;;;;79.47;29.47;;;6.60;99.90;;;;;;5053668;28;20530;-69
2022/01/16 13:12:12;;;;;;;67.75;26.88;;;6.60;99.90;;;;;;5053353;28;20350;-69
2022/01/16 13:14:41;;;;;;;64.63;29.70;;;6.60;99.90;;;;;;5053305;28;20159;-69
2022/01/16 13:17:10;;;;;;;80.65;28.20;;;6.60;99.90;;;;;;5053182;28;20469;-69